»·PEaware :: N3891R KSNA-KRIV

N3891R :: KSNA-KRIV

FLIGHT INFORMATION

Flight Status: Arrived
Operator: Privately registered:
United States
More flights under this callsign
Pilot: Markus B. (22479)
Aircraft: BEECH AIRCRAFT BARON
(BE58)
More flights by this aircraft type
Origin: KSNA John Wayne-Orange Co
United States
Destination: KRIV March ARB
United States
More flights between these airports :: More routes between these airports
Route: +SLI V8 PDZ
File this flight plan on PilotEdge
Remarks: TEC route CSTP13
Altitude:
(Current/Filed)
6,000ft
Speed:
(Current/Filed)
170kts
Departed: 07-Mar-20 10:17 AM
Arrived: 07-Mar-20 10:55 AM
Distance/Time
Traveled:
33nm/0:38
Distance/Time
To Go:
Arrived

Flight Plot

Page will automatically refresh every two minutes.


Map Options




Map Legend


Flown Route
Filed Route
Departure Airport
Arrival Airport
Navaid (VOR, NDB)
Fix

Horizontal Profiles

Position Reports

Time Latitude Longitude Heading Altitude Ground
Speed
07-Mar-20 09:54 33.682373 -117.860276 118 60ft 0kts
07-Mar-20 09:55 33.682373 -117.860276 118 60ft 0kts
07-Mar-20 09:56 33.682373 -117.860276 118 60ft 0kts
07-Mar-20 09:57 33.682373 -117.860276 118 60ft 0kts
07-Mar-20 09:58 33.682373 -117.860276 118 60ft 0kts
07-Mar-20 09:59 33.682373 -117.860276 118 60ft 0kts
07-Mar-20 10:00 33.682373 -117.860276 118 60ft 0kts
07-Mar-20 10:01 33.682373 -117.860276 118 60ft 0kts
07-Mar-20 10:02 33.682373 -117.860276 118 60ft 0kts
07-Mar-20 10:03 33.682373 -117.860276 118 60ft 0kts
07-Mar-20 10:04 33.682373 -117.860276 118 60ft 0kts
07-Mar-20 10:05 33.682373 -117.860276 118 60ft 0kts
07-Mar-20 10:06 33.682373 -117.860276 118 60ft 0kts
07-Mar-20 10:07 33.682373 -117.860276 118 60ft 0kts
07-Mar-20 10:08 33.682373 -117.860276 118 60ft 0kts
07-Mar-20 10:09 33.682373 -117.860276 118 60ft 0kts
07-Mar-20 10:10 33.682373 -117.860276 118 60ft 0kts
07-Mar-20 10:11 33.682373 -117.860276 118 60ft 0kts
07-Mar-20 10:12 33.682435 -117.860413 259 60ft 8kts
07-Mar-20 10:13 33.679807 -117.863291 290 60ft 4kts
07-Mar-20 10:14 33.679911 -117.863550 297 60ft 0kts
07-Mar-20 10:15 33.679911 -117.863550 297 60ft 0kts
07-Mar-20 10:16 33.665697 -117.874809 235 696ft 109kts
07-Mar-20 10:17 33.646516 -117.916547 240 1831ft 126kts
07-Mar-20 10:18 33.625529 -117.910710 122 3614ft 100kts
07-Mar-20 10:19 33.614125 -117.880921 72 4954ft 104kts
07-Mar-20 10:20 33.591386 -117.865011 231 5602ft 140kts
07-Mar-20 10:21 33.628239 -117.868483 21 4910ft 188kts
07-Mar-20 10:22 33.678228 -117.872414 352 4947ft 181kts
07-Mar-20 10:23 33.728389 -117.880587 352 4963ft 181kts
07-Mar-20 10:24 33.778381 -117.888723 352 4962ft 181kts
07-Mar-20 10:25 33.822923 -117.864455 32 4983ft 181kts
07-Mar-20 10:26 33.863336 -117.829136 70 4845ft 187kts
07-Mar-20 10:27 33.871552 -117.770055 76 4926ft 183kts
07-Mar-20 10:28 33.883160 -117.711054 76 4962ft 181kts
07-Mar-20 10:30 33.894713 -117.651761 76 4969ft 181kts
07-Mar-20 10:31 33.906219 -117.592547 76 4971ft 181kts
07-Mar-20 10:32 33.911640 -117.533449 125 4885ft 184kts
07-Mar-20 10:33 33.879459 -117.489715 131 4968ft 171kts
07-Mar-20 10:34 33.847565 -117.447332 131 4970ft 170kts
07-Mar-20 10:35 33.815666 -117.404937 131 4971ft 170kts
07-Mar-20 10:36 33.783824 -117.362608 131 4971ft 170kts
07-Mar-20 10:37 33.795339 -117.327162 342 4980ft 167kts
07-Mar-20 10:38 33.838134 -117.350985 334 5008ft 176kts
07-Mar-20 10:39 33.883222 -117.376888 334 4930ft 177kts
07-Mar-20 10:40 33.926381 -117.401735 334 4998ft 176kts
07-Mar-20 10:41 33.971632 -117.427742 334 4975ft 181kts
07-Mar-20 10:42 34.017146 -117.453904 334 4972ft 181kts
07-Mar-20 10:43 34.062852 -117.480175 334 4971ft 181kts
07-Mar-20 10:44 34.108765 -117.490740 50 4959ft 178kts
07-Mar-20 10:45 34.094867 -117.443760 127 4921ft 140kts
07-Mar-20 10:46 34.070674 -117.416970 120 4989ft 120kts
07-Mar-20 10:47 34.047745 -117.382848 143 4581ft 143kts
07-Mar-20 10:48 34.015169 -117.354683 146 4092ft 141kts
07-Mar-20 10:48 33.990000 -117.336539 149 3983ft 129kts
07-Mar-20 10:50 33.949319 -117.307910 150 3240ft 139kts
07-Mar-20 10:51 33.921760 -117.288113 151 2241ft 106kts
07-Mar-20 10:51 33.901025 -117.273816 151 1672ft 100kts
07-Mar-20 10:52 33.883257 -117.261214 151 1516ft 42kts
07-Mar-20 10:54 33.870729 -117.252362 149 1492ft 52kts
07-Mar-20 10:54 33.866381 -117.246439 10 1483ft 18kts

Navigation Log

Ident Type
Flight plan parsing failed, navigation log unavailable